createdAt,value
2022-09-16T00:01:26.586Z,1.30
2022-09-16T00:03:58.938Z,0.93
2022-09-16T00:06:28.561Z,1.17
2022-09-16T00:08:57.591Z,1.37
2022-09-16T00:11:27.062Z,1.00
2022-09-16T00:13:55.431Z,1.37
2022-09-16T00:16:25.658Z,0.97
2022-09-16T00:18:55.738Z,1.27
2022-09-16T00:21:25.994Z,1.07
2022-09-16T00:23:54.201Z,1.33
2022-09-16T00:26:23.049Z,1.47
2022-09-16T00:28:52.649Z,1.13
2022-09-16T00:31:20.768Z,1.30
2022-09-16T00:33:48.757Z,1.63
2022-09-16T00:36:18.666Z,1.10
2022-09-16T00:38:46.873Z,1.13
2022-09-16T00:41:18.284Z,1.10
2022-09-16T00:43:57.074Z,2.07
2022-09-16T00:46:32.189Z,1.60
2022-09-16T00:49:04.659Z,1.23
2022-09-16T00:51:33.164Z,1.10
2022-09-16T00:54:05.426Z,1.70
2022-09-16T00:56:38.247Z,1.20
2022-09-16T00:59:10.853Z,0.80
2022-09-16T01:01:39.979Z,2.17
2022-09-16T01:04:17.775Z,1.83
2022-09-16T01:06:46.015Z,1.40
2022-09-16T01:09:14.332Z,1.50
2022-09-16T01:11:42.551Z,2.17
2022-09-16T01:14:30.304Z,1.60
2022-09-16T01:17:06.510Z,1.87
2022-09-16T01:19:50.023Z,1.40
2022-09-16T01:22:30.416Z,1.03
2022-09-16T01:25:07.007Z,1.50
2022-09-16T01:28:12.476Z,1.20
2022-09-16T01:30:48.048Z,1.40
2022-09-16T01:33:28.047Z,1.33
2022-09-16T01:36:09.520Z,2.07
2022-09-16T01:38:53.708Z,1.87
2022-09-16T01:41:29.023Z,1.97
2022-09-16T01:44:02.978Z,1.17
2022-09-16T01:46:42.175Z,1.50
2022-09-16T01:49:18.745Z,1.57
2022-09-16T01:51:53.128Z,1.20
2022-09-16T01:54:28.337Z,1.63
2022-09-16T01:57:02.604Z,1.67
2022-09-16T01:59:39.246Z,1.50
2022-09-16T02:02:12.696Z,1.07
2022-09-16T02:04:45.635Z,1.40
2022-09-16T02:07:17.255Z,1.93
2022-09-16T02:09:49.149Z,1.67
2022-09-16T02:12:23.202Z,1.80
2022-09-16T02:14:55.525Z,1.63
2022-09-16T02:17:28.673Z,1.60
2022-09-16T02:20:01.297Z,1.40
2022-09-16T02:22:35.432Z,1.77
2022-09-16T02:25:07.069Z,1.80
2022-09-16T02:27:39.063Z,1.63
2022-09-16T02:30:10.323Z,2.43
2022-09-16T02:32:43.134Z,1.60
2022-09-16T02:35:14.822Z,1.50
2022-09-16T02:37:47.321Z,1.77
2022-09-16T02:40:18.779Z,1.63
2022-09-16T02:42:49.368Z,1.33
2022-09-16T02:45:17.775Z,1.47
2022-09-16T02:48:03.253Z,1.80
2022-09-16T02:50:41.137Z,1.50
2022-09-16T02:53:15.243Z,1.93
2022-09-16T02:55:51.808Z,1.93
2022-09-16T02:58:19.938Z,1.40
2022-09-16T03:00:59.863Z,1.63
2022-09-16T03:03:31.893Z,2.43
2022-09-16T03:06:17.149Z,1.70
2022-09-16T03:08:47.038Z,1.50
2022-09-16T03:11:35.985Z,1.80
2022-09-16T03:14:19.516Z,1.80
2022-09-16T03:16:54.559Z,1.90
2022-09-16T03:19:32.761Z,2.10
2022-09-16T03:22:07.323Z,2.70
2022-09-16T03:24:44.459Z,2.30
2022-09-16T03:27:23.313Z,2.30
2022-09-16T03:29:57.174Z,2.10
2022-09-16T03:32:30.791Z,2.40
2022-09-16T03:35:04.320Z,2.30
2022-09-16T03:37:35.551Z,2.20
2022-09-16T03:40:09.071Z,2.00
2022-09-16T03:42:40.274Z,2.20
2022-09-16T03:45:09.287Z,2.50
2022-09-16T03:47:37.502Z,2.00
2022-09-16T03:50:16.023Z,2.83
2022-09-16T03:52:44.068Z,2.60
2022-09-16T03:55:12.653Z,1.87
2022-09-16T03:57:41.048Z,1.90
2022-09-16T04:00:10.745Z,2.50
2022-09-16T04:02:47.299Z,1.90
2022-09-16T04:05:18.081Z,1.30
2022-09-16T04:07:46.070Z,1.67
2022-09-16T04:10:14.125Z,2.03
2022-09-16T04:12:42.252Z,1.20
2022-09-16T04:15:11.041Z,1.50
2022-09-16T04:17:39.320Z,1.30
2022-09-16T04:20:08.753Z,1.60
2022-09-16T04:22:38.114Z,1.67
2022-09-16T04:25:06.894Z,1.80
2022-09-16T04:27:34.751Z,1.53
2022-09-16T04:30:02.651Z,1.17
2022-09-16T04:32:30.572Z,1.80
2022-09-16T04:34:58.549Z,1.80
2022-09-16T04:37:26.470Z,1.30
2022-09-16T04:39:55.801Z,1.40
2022-09-16T04:42:23.820Z,1.47
2022-09-16T04:44:54.330Z,2.07
2022-09-16T04:47:22.829Z,1.93
2022-09-16T04:49:51.059Z,1.50
2022-09-16T04:52:19.052Z,2.10
2022-09-16T04:54:47.031Z,2.07
2022-09-16T04:57:16.381Z,1.77
2022-09-16T04:59:44.492Z,1.80
2022-09-16T05:02:12.397Z,1.40
2022-09-16T05:04:40.470Z,1.50
2022-09-16T05:07:09.136Z,1.50
2022-09-16T05:09:37.591Z,1.90
2022-09-16T05:12:06.151Z,1.80
2022-09-16T05:14:35.540Z,2.37
2022-09-16T05:17:03.510Z,2.13
2022-09-16T05:19:36.498Z,2.60
2022-09-16T05:22:09.387Z,2.40
2022-09-16T05:24:37.399Z,2.77
2022-09-16T05:27:05.458Z,2.60
2022-09-16T05:29:34.781Z,3.10
2022-09-16T05:32:03.245Z,3.40
2022-09-16T05:34:35.532Z,2.60
2022-09-16T05:37:04.279Z,2.77
2022-09-16T05:39:33.536Z,2.30
2022-09-16T05:42:01.784Z,3.10
2022-09-16T05:44:30.308Z,2.90
2022-09-16T05:46:59.678Z,2.30
2022-09-16T05:49:27.663Z,2.43
2022-09-16T05:51:56.176Z,2.77
2022-09-16T05:54:25.463Z,2.47
2022-09-16T05:56:55.027Z,2.60
2022-09-16T05:59:24.144Z,2.50
2022-09-16T06:01:54.563Z,2.83
2022-09-16T06:04:23.905Z,3.17
2022-09-16T06:06:51.906Z,2.80
2022-09-16T06:09:25.232Z,3.60
2022-09-16T06:12:01.466Z,3.73
2022-09-16T06:14:32.312Z,3.57
2022-09-16T06:17:26.379Z,3.80
2022-09-16T06:20:14.151Z,3.90
2022-09-16T06:22:48.087Z,3.00
2022-09-16T06:25:22.995Z,3.07
2022-09-16T06:27:54.056Z,3.17
2022-09-16T06:30:35.878Z,3.53
2022-09-16T06:33:12.916Z,2.97
2022-09-16T06:36:10.103Z,3.50
2022-09-16T06:38:40.810Z,4.03
2022-09-16T06:41:15.994Z,3.87
2022-09-16T06:44:02.693Z,3.17
2022-09-16T06:46:31.354Z,3.30
2022-09-16T06:49:04.514Z,3.93
2022-09-16T06:51:56.152Z,3.00
2022-09-16T06:54:37.502Z,3.23
2022-09-16T06:57:12.581Z,3.00
2022-09-16T06:59:40.676Z,3.43
2022-09-16T07:02:21.570Z,2.50
2022-09-16T07:04:49.848Z,3.40
2022-09-16T07:07:31.027Z,3.00
2022-09-16T07:10:10.057Z,2.30
2022-09-16T07:13:01.943Z,3.37
2022-09-16T07:16:09.177Z,2.87
2022-09-16T07:19:00.728Z,2.20
2022-09-16T07:21:36.805Z,2.07
2022-09-16T07:24:15.634Z,3.43
2022-09-16T07:27:04.573Z,2.10
2022-09-16T07:29:39.911Z,2.03
2022-09-16T07:32:08.945Z,2.10
2022-09-16T07:34:56.636Z,2.43
2022-09-16T07:37:40.570Z,2.53
2022-09-16T07:40:18.849Z,2.40
2022-09-16T07:42:47.143Z,2.43
2022-09-16T07:45:15.589Z,2.00
2022-09-16T07:47:55.194Z,1.27
2022-09-16T07:50:41.293Z,1.30
2022-09-16T07:53:11.150Z,1.00
2022-09-16T07:55:51.906Z,0.93
2022-09-16T07:58:26.344Z,1.50
2022-09-16T08:01:30.857Z,1.20
2022-09-16T08:04:04.530Z,1.10
2022-09-16T08:06:53.613Z,1.27
2022-09-16T08:12:44.825Z,1.20
2022-09-16T08:15:33.492Z,0.80
2022-09-16T08:21:12.204Z,1.23
2022-09-16T08:27:23.575Z,1.27
2022-09-16T08:30:38.043Z,1.20
2022-09-16T08:34:14.679Z,1.47
2022-09-16T08:36:42.689Z,1.10
2022-09-16T08:39:17.304Z,1.20
2022-09-16T08:42:36.418Z,1.10
2022-09-16T08:45:22.038Z,1.13
2022-09-16T08:48:08.995Z,0.80
2022-09-16T08:50:43.782Z,1.13
2022-09-16T08:53:17.242Z,1.00
2022-09-16T09:02:39.602Z,1.60
2022-09-16T09:05:19.964Z,0.97
2022-09-16T09:08:11.710Z,1.20
2022-09-16T09:10:46.876Z,0.70
2022-09-16T09:13:39.716Z,1.00
2022-09-16T09:16:17.280Z,0.57
2022-09-16T09:18:54.313Z,0.73
2022-09-16T09:21:32.013Z,0.73
2022-09-16T09:24:14.732Z,0.77
2022-09-16T09:26:51.157Z,0.70
2022-09-16T09:29:52.507Z,0.50
2022-09-16T09:32:28.039Z,0.60
2022-09-16T09:35:09.523Z,0.50
2022-09-16T09:37:50.727Z,0.50
2022-09-16T09:40:24.921Z,0.47
2022-09-16T09:42:59.777Z,0.73
2022-09-16T09:45:31.525Z,0.73
2022-09-16T09:48:04.841Z,0.60
2022-09-16T09:50:40.195Z,0.80
2022-09-16T09:53:19.289Z,0.50
2022-09-16T09:55:47.426Z,0.70
2022-09-16T09:58:27.570Z,0.80
2022-09-16T10:00:57.602Z,0.70
2022-09-16T10:03:26.824Z,0.60
2022-09-16T10:05:54.959Z,0.33
2022-09-16T10:08:42.321Z,0.50
2022-09-16T10:11:18.055Z,0.30
2022-09-16T10:13:50.152Z,0.40
2022-09-16T10:16:21.572Z,0.50
2022-09-16T10:19:00.479Z,0.60
2022-09-16T10:21:50.818Z,0.50
2022-09-16T10:24:38.118Z,0.40
2022-09-16T10:27:22.041Z,0.50
2022-09-16T10:30:03.233Z,0.40
2022-09-16T10:35:38.838Z,0.60
2022-09-16T10:38:29.378Z,0.60
2022-09-16T10:41:23.741Z,0.40
2022-09-16T10:43:55.003Z,0.40
2022-09-16T10:46:24.146Z,0.50
2022-09-16T10:48:59.142Z,0.50
2022-09-16T10:51:31.404Z,0.60
2022-09-16T10:54:01.769Z,0.30
2022-09-16T10:56:37.277Z,0.53
2022-09-16T10:59:07.047Z,0.60
2022-09-16T11:01:49.367Z,0.50
2022-09-16T11:04:45.931Z,0.50
2022-09-16T11:07:35.413Z,0.53
2022-09-16T11:10:15.117Z,0.30
2022-09-16T11:13:17.336Z,0.60
2022-09-16T11:15:56.417Z,0.30
2022-09-16T11:18:39.033Z,0.60
2022-09-16T11:21:23.654Z,0.33
2022-09-16T11:24:20.423Z,0.40
2022-09-16T11:26:59.617Z,0.30
2022-09-16T11:29:51.921Z,0.30
2022-09-16T11:32:35.362Z,0.40
2022-09-16T11:35:24.040Z,0.27
2022-09-16T11:38:00.768Z,0.40
2022-09-16T11:40:35.516Z,0.30
2022-09-16T11:43:36.940Z,0.40
2022-09-16T11:46:26.760Z,0.70
2022-09-16T11:49:15.235Z,0.50
2022-09-16T11:52:41.258Z,0.30
2022-09-16T11:55:58.890Z,0.70
2022-09-16T11:58:37.524Z,0.40
2022-09-16T12:01:20.486Z,0.43
2022-09-16T12:03:54.861Z,0.30
2022-09-16T12:06:32.881Z,0.40
2022-09-16T12:09:07.803Z,0.83
2022-09-16T12:11:46.632Z,0.87
2022-09-16T12:14:23.359Z,0.50
2022-09-16T12:17:11.599Z,1.03
2022-09-16T12:19:45.767Z,0.40
2022-09-16T12:22:23.078Z,0.70
2022-09-16T12:24:59.273Z,0.60
2022-09-16T12:27:45.373Z,0.40
2022-09-16T12:30:18.299Z,0.47
2022-09-16T12:32:55.904Z,0.40
2022-09-16T12:35:28.768Z,0.30
2022-09-16T12:37:57.591Z,0.30
2022-09-16T12:40:28.455Z,0.57
2022-09-16T12:43:32.149Z,0.30
2022-09-16T12:46:37.563Z,0.60
2022-09-16T12:49:49.569Z,0.30
2022-09-16T12:52:28.391Z,0.20
2022-09-16T12:55:35.097Z,0.40
2022-09-16T12:58:18.707Z,0.40
2022-09-16T13:00:59.687Z,0.40
2022-09-16T13:03:31.344Z,0.30
2022-09-16T13:06:06.918Z,0.40
2022-09-16T13:08:36.727Z,0.40
2022-09-16T13:13:58.217Z,0.47
2022-09-16T13:16:32.240Z,0.50
2022-09-16T13:19:25.655Z,0.40
2022-09-16T13:21:59.877Z,0.50
2022-09-16T13:24:34.596Z,0.60
2022-09-16T13:27:02.628Z,0.40
2022-09-16T13:29:44.847Z,0.30
2022-09-16T13:32:29.846Z,0.40
2022-09-16T13:35:06.861Z,0.47
2022-09-16T13:37:36.128Z,0.50
2022-09-16T13:40:18.573Z,0.40
2022-09-16T13:42:46.586Z,0.60
2022-09-16T13:45:39.717Z,0.30
2022-09-16T13:48:13.328Z,0.47
2022-09-16T13:50:44.907Z,0.30
2022-09-16T13:53:25.532Z,0.30
2022-09-16T13:55:57.241Z,0.40
2022-09-16T13:58:33.850Z,0.30
2022-09-16T14:01:11.560Z,0.30
2022-09-16T14:03:48.026Z,0.47
2022-09-16T14:06:45.168Z,0.33
2022-09-16T14:09:30.541Z,0.30
2022-09-16T14:12:14.690Z,0.40
2022-09-16T14:14:54.394Z,0.40
2022-09-16T14:17:58.113Z,0.40
2022-09-16T14:20:29.574Z,0.40
2022-09-16T14:23:42.939Z,0.60
2022-09-16T14:26:25.529Z,0.60
2022-09-16T14:29:06.785Z,0.40
2022-09-16T14:31:35.315Z,0.30
2022-09-16T14:34:09.649Z,0.43
2022-09-16T14:36:41.080Z,0.27
2022-09-16T14:39:22.493Z,0.40
2022-09-16T14:41:54.891Z,0.30
2022-09-16T14:44:32.075Z,0.20
2022-09-16T14:47:09.580Z,0.30
2022-09-16T14:50:09.793Z,0.30
2022-09-16T14:52:53.368Z,0.30
2022-09-16T14:55:29.242Z,0.40
2022-09-16T14:58:06.913Z,0.20
2022-09-16T15:00:43.199Z,0.30
2022-09-16T15:03:22.665Z,0.20
2022-09-16T15:05:51.327Z,0.30
2022-09-16T15:08:27.246Z,0.57
2022-09-16T15:11:24.503Z,0.33
2022-09-16T15:14:11.027Z,0.30
2022-09-16T15:16:48.669Z,0.33
2022-09-16T15:19:28.270Z,0.20
2022-09-16T15:21:57.554Z,0.30
2022-09-16T15:24:46.863Z,0.50
2022-09-16T15:27:30.601Z,0.30
2022-09-16T15:30:09.371Z,0.30
2022-09-16T15:32:47.572Z,0.40
2022-09-16T15:35:28.443Z,0.20
2022-09-16T15:38:13.214Z,0.40
2022-09-16T15:40:54.337Z,0.30
2022-09-16T15:43:35.308Z,0.37
2022-09-16T15:46:16.181Z,0.37
2022-09-16T15:48:52.207Z,0.33
2022-09-16T15:51:30.292Z,0.30
2022-09-16T15:54:04.452Z,0.30
2022-09-16T15:56:54.127Z,0.40
2022-09-16T15:59:30.761Z,0.50
2022-09-16T16:02:04.775Z,0.30
2022-09-16T16:04:37.758Z,0.40
2022-09-16T16:07:09.113Z,0.33
2022-09-16T16:09:40.616Z,0.50
2022-09-16T16:12:11.292Z,0.40
2022-09-16T16:14:40.877Z,0.30
2022-09-16T16:17:16.661Z,0.50
2022-09-16T16:19:46.635Z,0.67
2022-09-16T16:22:16.087Z,0.40
2022-09-16T16:24:45.445Z,0.67
2022-09-16T16:27:13.627Z,0.70
2022-09-16T16:29:41.734Z,0.77
2022-09-16T16:32:13.363Z,0.63
2022-09-16T16:34:44.156Z,0.70
2022-09-16T16:37:33.862Z,0.70
2022-09-16T16:40:07.349Z,0.50
2022-09-16T16:42:35.926Z,0.43
2022-09-16T16:45:05.849Z,0.67
2022-09-16T16:47:35.673Z,0.40
2022-09-16T16:50:03.701Z,0.30
2022-09-16T16:52:31.709Z,1.30
2022-09-16T16:54:59.757Z,1.80
2022-09-16T16:57:27.825Z,3.50
2022-09-16T16:59:56.434Z,7.77
2022-09-16T17:02:24.714Z,13.77
2022-09-16T17:04:54.425Z,18.50
2022-09-16T17:07:26.357Z,20.80
2022-09-16T17:09:55.594Z,5.20
2022-09-16T17:12:23.681Z,4.30
2022-09-16T17:14:59.259Z,2.90
2022-09-16T17:17:32.353Z,2.00
2022-09-16T17:20:03.444Z,4.93
2022-09-16T17:22:37.037Z,7.40
2022-09-16T17:25:08.360Z,10.70
2022-09-16T17:27:36.807Z,4.90
2022-09-16T17:30:10.156Z,22.57
2022-09-16T17:32:41.161Z,9.33
2022-09-16T17:35:14.606Z,1.90
2022-09-16T17:37:45.208Z,1.60
2022-09-16T17:40:18.323Z,1.57
2022-09-16T17:42:46.614Z,1.30
2022-09-16T17:45:25.468Z,1.00
2022-09-16T17:47:55.476Z,0.60
2022-09-16T17:50:26.695Z,1.20
2022-09-16T17:56:11.646Z,1.33
2022-09-16T17:58:46.999Z,1.50
2022-09-16T18:01:20.451Z,1.00
2022-09-16T18:04:08.003Z,0.83
2022-09-16T18:06:55.245Z,1.03
2022-09-16T18:09:28.771Z,0.90
2022-09-16T18:11:59.729Z,2.60
2022-09-16T18:14:33.604Z,1.20
2022-09-16T18:17:07.808Z,0.80
2022-09-16T18:19:41.619Z,0.70
2022-09-16T18:22:11.319Z,1.07
2022-09-16T18:24:49.038Z,0.80
2022-09-16T18:27:32.419Z,1.20
2022-09-16T18:30:09.624Z,1.10
2022-09-16T18:32:47.787Z,1.10
2022-09-16T18:35:21.898Z,1.00
2022-09-16T18:37:56.298Z,1.00
2022-09-16T18:40:29.852Z,1.07
2022-09-16T18:43:06.246Z,0.83
2022-09-16T18:45:56.828Z,0.90
2022-09-16T18:48:43.141Z,0.87
2022-09-16T18:51:29.787Z,1.00
2022-09-16T18:54:28.360Z,1.03
2022-09-16T18:57:12.646Z,0.77
2022-09-16T18:59:44.389Z,1.77
2022-09-16T19:02:28.358Z,1.10
2022-09-16T19:05:13.171Z,1.00
2022-09-16T19:07:52.633Z,0.77
2022-09-16T19:10:36.522Z,1.10
2022-09-16T19:13:06.957Z,1.07
2022-09-16T19:16:33.993Z,0.83
2022-09-16T19:19:03.785Z,1.33
2022-09-16T19:21:31.887Z,1.20
2022-09-16T19:24:01.687Z,1.20
2022-09-16T19:26:32.785Z,1.23
2022-09-16T19:29:01.348Z,1.30
2022-09-16T19:31:31.921Z,1.37
2022-09-16T19:34:00.479Z,1.30
2022-09-16T19:36:31.694Z,1.10
2022-09-16T19:39:02.926Z,1.20
2022-09-16T19:41:34.745Z,1.40
2022-09-16T19:44:05.109Z,1.20
2022-09-16T19:46:35.578Z,1.50
2022-09-16T19:49:06.316Z,1.53
2022-09-16T19:51:34.545Z,1.43
2022-09-16T19:54:03.252Z,1.07
2022-09-16T19:56:33.798Z,1.40
2022-09-16T19:59:03.035Z,1.67
2022-09-16T20:01:34.218Z,1.40
2022-09-16T20:04:03.745Z,1.90
2022-09-16T20:06:36.079Z,1.60
2022-09-16T20:09:06.180Z,1.27
2022-09-16T20:11:46.039Z,1.40
2022-09-16T20:14:18.104Z,1.60
2022-09-16T20:16:46.277Z,1.40
2022-09-16T20:19:16.243Z,1.50
2022-09-16T20:21:45.184Z,2.10
2022-09-16T20:24:16.312Z,1.53
2022-09-16T20:26:45.910Z,1.30
2022-09-16T20:29:17.282Z,1.87
2022-09-16T20:31:46.139Z,1.73
2022-09-16T20:34:16.089Z,1.43
2022-09-16T20:36:51.880Z,1.43
2022-09-16T20:39:20.087Z,1.50
2022-09-16T20:41:52.521Z,1.20
2022-09-16T20:44:20.501Z,1.60
2022-09-16T20:46:49.982Z,1.73
2022-09-16T20:49:19.555Z,1.50
2022-09-16T20:51:47.787Z,1.50
2022-09-16T20:54:16.666Z,1.43
2022-09-16T20:56:46.938Z,1.80
2022-09-16T20:59:19.918Z,1.73
2022-09-16T21:01:49.473Z,1.77
2022-09-16T21:04:19.801Z,2.17
2022-09-16T21:06:48.614Z,1.70
2022-09-16T21:09:18.331Z,1.90
2022-09-16T21:11:46.539Z,1.73
2022-09-16T21:14:21.508Z,1.70
2022-09-16T21:16:50.568Z,1.70
2022-09-16T21:19:18.679Z,1.80
2022-09-16T21:21:47.692Z,1.87
2022-09-16T21:24:16.381Z,1.93
2022-09-16T21:26:45.983Z,1.43
2022-09-16T21:29:15.665Z,1.73
2022-09-16T21:31:45.833Z,1.57
2022-09-16T21:34:17.432Z,1.40
2022-09-16T21:36:45.646Z,1.23
2022-09-16T21:39:15.986Z,1.30
2022-09-16T21:41:52.560Z,1.23
2022-09-16T21:44:30.420Z,1.50
2022-09-16T21:47:11.444Z,1.30
2022-09-16T21:50:00.317Z,1.93
2022-09-16T21:52:29.691Z,1.20
2022-09-16T21:54:57.771Z,1.50
2022-09-16T21:57:30.551Z,1.20
2022-09-16T21:59:58.583Z,1.87
2022-09-16T22:03:07.379Z,1.70
2022-09-16T22:27:06.174Z,1.40
2022-09-16T22:29:34.100Z,1.00
2022-09-16T22:32:12.198Z,1.20
2022-09-16T22:34:49.473Z,1.47
2022-09-16T22:37:17.440Z,1.20
2022-09-16T22:39:48.123Z,0.87
2022-09-16T22:42:18.609Z,1.30
2022-09-16T22:44:46.554Z,1.17
2022-09-16T22:47:14.689Z,0.90
2022-09-16T22:49:42.540Z,1.00
2022-09-16T22:52:10.441Z,1.20
2022-09-16T22:54:44.151Z,1.03
2022-09-16T22:57:13.499Z,0.87
2022-09-16T22:59:44.237Z,1.33
2022-09-16T23:02:12.302Z,0.87
2022-09-16T23:04:46.318Z,1.07
2022-09-16T23:07:17.103Z,0.83
2022-09-16T23:09:45.018Z,0.83
2022-09-16T23:12:27.655Z,1.07
2022-09-16T23:14:55.559Z,1.50
2022-09-16T23:17:24.971Z,1.27
2022-09-16T23:19:53.190Z,1.30
2022-09-16T23:22:23.402Z,1.43
2022-09-16T23:24:51.441Z,1.00
2022-09-16T23:27:20.811Z,1.30
2022-09-16T23:29:53.756Z,1.10
2022-09-16T23:32:21.656Z,1.17
2022-09-16T23:34:51.487Z,1.43
2022-09-16T23:37:19.469Z,1.10
2022-09-16T23:39:47.301Z,1.03
2022-09-16T23:42:16.678Z,1.17
2022-09-16T23:44:45.884Z,0.87
2022-09-16T23:47:14.868Z,1.73
2022-09-16T23:49:43.286Z,0.87
2022-09-16T23:52:11.760Z,1.10
2022-09-16T23:54:39.887Z,0.93
2022-09-16T23:57:07.971Z,0.90
2022-09-16T23:59:37.111Z,0.90
